createdAt,value
2022-11-23T00:00:23.108Z,3.78
2022-11-23T00:03:20.008Z,3.76
2022-11-23T00:06:18.111Z,3.86
2022-11-23T00:09:14.967Z,3.86
2022-11-23T00:12:11.872Z,3.79
2022-11-23T00:15:09.963Z,3.75
2022-11-23T00:18:06.846Z,3.75
2022-11-23T00:21:17.123Z,3.82
2022-11-23T00:24:14.155Z,3.72
2022-11-23T00:27:11.025Z,3.74
2022-11-23T00:30:08.948Z,3.75
2022-11-23T00:33:05.881Z,3.77
2022-11-23T00:36:08.955Z,3.82
2022-11-23T00:39:05.817Z,3.84
2022-11-23T00:42:02.755Z,3.81
2022-11-23T00:44:59.686Z,3.84
2022-11-23T00:47:56.573Z,3.81
2022-11-23T00:50:53.543Z,3.83
2022-11-23T00:53:51.790Z,3.83
2022-11-23T00:56:48.679Z,3.80
2022-11-23T00:59:45.786Z,3.83
2022-11-23T01:02:42.675Z,3.78
2022-11-23T01:05:39.808Z,3.80
2022-11-23T01:08:37.750Z,3.74
2022-11-23T01:11:35.435Z,3.81
2022-11-23T01:14:32.356Z,3.90
2022-11-23T01:17:29.285Z,3.85
2022-11-23T01:20:26.170Z,3.87
2022-11-23T01:23:23.293Z,3.81
2022-11-23T01:26:20.875Z,3.83
2022-11-23T01:29:17.748Z,3.80
2022-11-23T01:32:14.645Z,3.86
2022-11-23T01:35:11.539Z,3.86
2022-11-23T01:38:08.782Z,3.87
2022-11-23T01:41:11.968Z,3.87
2022-11-23T01:44:31.468Z,3.84
2022-11-23T01:47:28.421Z,3.89
2022-11-23T01:50:26.253Z,3.79
2022-11-23T01:53:23.470Z,4.00
2022-11-23T01:56:26.978Z,3.86
2022-11-23T01:59:25.483Z,3.84
2022-11-23T02:02:22.654Z,3.81
2022-11-23T02:05:24.156Z,3.76
2022-11-23T02:08:21.969Z,3.77
2022-11-23T02:11:18.889Z,3.80
2022-11-23T02:14:21.926Z,3.76
2022-11-23T02:17:22.050Z,3.75
2022-11-23T02:20:19.549Z,3.75
2022-11-23T02:23:46.580Z,3.82
2022-11-23T02:26:44.140Z,3.79
2022-11-23T02:29:41.766Z,3.75
2022-11-23T02:32:38.926Z,3.76
2022-11-23T02:35:36.071Z,3.88
2022-11-23T02:38:34.097Z,3.81
2022-11-23T02:41:50.476Z,3.86
2022-11-23T02:45:20.184Z,3.75
2022-11-23T02:48:18.371Z,3.75
2022-11-23T02:51:15.272Z,3.76
2022-11-23T02:54:12.329Z,3.72
2022-11-23T02:57:10.031Z,3.65
2022-11-23T03:00:08.118Z,3.71
2022-11-23T03:03:05.447Z,3.70
2022-11-23T03:06:02.538Z,3.69
2022-11-23T03:08:59.645Z,3.71
2022-11-23T03:11:56.624Z,3.70
2022-11-23T03:14:53.568Z,3.66
2022-11-23T03:17:50.597Z,3.67
2022-11-23T03:20:47.483Z,3.67
2022-11-23T03:23:44.740Z,3.72
2022-11-23T03:26:41.641Z,3.66
2022-11-23T03:29:38.510Z,3.61
2022-11-23T03:32:36.391Z,3.62
2022-11-23T03:35:33.250Z,3.64
2022-11-23T03:38:30.709Z,3.66
2022-11-23T03:41:27.818Z,3.70
2022-11-23T03:44:24.874Z,3.67
2022-11-23T03:47:21.829Z,3.68
2022-11-23T03:50:18.851Z,3.66
2022-11-23T03:53:15.783Z,3.64
2022-11-23T03:56:13.549Z,3.59
2022-11-23T03:59:10.448Z,3.62
2022-11-23T04:02:08.132Z,3.64
2022-11-23T04:05:05.858Z,3.58
2022-11-23T04:08:02.818Z,3.55
2022-11-23T04:11:00.203Z,3.63
2022-11-23T04:13:57.086Z,3.55
2022-11-23T04:16:54.031Z,3.56
2022-11-23T04:19:50.961Z,3.61
2022-11-23T04:22:47.890Z,3.66
2022-11-23T04:25:46.185Z,3.58
2022-11-23T04:28:43.052Z,3.57
2022-11-23T04:31:39.998Z,3.62
2022-11-23T04:34:37.188Z,3.63
2022-11-23T04:37:34.090Z,3.57
2022-11-23T04:40:31.788Z,3.58
2022-11-23T04:43:28.680Z,3.51
2022-11-23T04:46:25.984Z,3.57
2022-11-23T04:49:22.821Z,3.68
2022-11-23T04:52:19.693Z,3.64
2022-11-23T04:55:16.669Z,3.57
2022-11-23T04:58:13.621Z,3.61
2022-11-23T05:01:10.633Z,3.50
2022-11-23T05:04:07.801Z,3.63
2022-11-23T05:07:04.803Z,3.58
2022-11-23T05:10:02.028Z,3.57
2022-11-23T05:12:58.994Z,3.55
2022-11-23T05:15:55.829Z,3.50
2022-11-23T05:18:52.660Z,3.49
2022-11-23T05:21:49.517Z,3.58
2022-11-23T05:24:46.368Z,3.56
2022-11-23T05:27:43.251Z,3.51
2022-11-23T05:30:40.093Z,3.56
2022-11-23T05:33:37.170Z,3.52
2022-11-23T05:36:35.153Z,3.51
2022-11-23T05:39:34.723Z,3.66
2022-11-23T05:42:32.761Z,3.56
2022-11-23T05:45:29.663Z,3.48
2022-11-23T05:48:27.053Z,3.53
2022-11-23T05:51:23.959Z,3.47
2022-11-23T05:54:20.996Z,3.45
2022-11-23T05:57:18.064Z,3.46
2022-11-23T06:00:15.717Z,3.46
2022-11-23T06:03:12.669Z,3.44
2022-11-23T06:06:09.661Z,3.42
2022-11-23T06:09:06.510Z,3.43
2022-11-23T06:12:03.932Z,3.43
2022-11-23T06:15:00.816Z,3.46
2022-11-23T06:18:02.218Z,3.46
2022-11-23T06:21:02.145Z,3.53
2022-11-23T06:23:59.000Z,3.48
2022-11-23T06:26:55.842Z,3.48
2022-11-23T06:29:52.702Z,3.44
2022-11-23T06:32:49.816Z,3.48
2022-11-23T06:35:54.834Z,3.39
2022-11-23T06:38:51.677Z,3.34
2022-11-23T06:41:48.637Z,3.34
2022-11-23T06:44:45.470Z,3.41
2022-11-23T06:47:42.358Z,3.32
2022-11-23T06:50:39.232Z,3.25
2022-11-23T06:53:36.576Z,3.36
2022-11-23T06:56:33.430Z,3.50
2022-11-23T06:59:30.484Z,3.46
2022-11-23T07:02:27.657Z,3.48
2022-11-23T07:05:24.972Z,3.45
2022-11-23T07:08:22.302Z,3.52
2022-11-23T07:11:19.162Z,3.56
2022-11-23T07:14:16.198Z,3.48
2022-11-23T07:17:17.320Z,3.50
2022-11-23T07:20:15.056Z,3.47
2022-11-23T07:23:12.668Z,3.51
2022-11-23T07:26:09.803Z,3.49
2022-11-23T07:29:06.763Z,3.51
2022-11-23T07:32:03.796Z,3.47
2022-11-23T07:35:01.140Z,3.55
2022-11-23T07:37:58.112Z,3.58
2022-11-23T07:40:55.071Z,3.60
2022-11-23T07:43:52.104Z,3.63
2022-11-23T07:46:49.012Z,3.48
2022-11-23T07:49:45.863Z,3.57
2022-11-23T07:52:42.756Z,3.68
2022-11-23T07:55:39.608Z,3.88
2022-11-23T07:58:36.507Z,3.86
2022-11-23T08:01:33.483Z,3.83
2022-11-23T08:04:30.812Z,3.92
2022-11-23T08:07:27.893Z,3.89
2022-11-23T08:10:25.187Z,3.84
2022-11-23T08:13:22.849Z,3.97
2022-11-23T08:16:20.068Z,3.98
2022-11-23T08:19:17.488Z,3.90
2022-11-23T08:22:15.849Z,4.05
2022-11-23T08:25:13.451Z,4.11
2022-11-23T08:28:10.985Z,4.02
2022-11-23T08:31:11.352Z,4.14
2022-11-23T08:34:08.236Z,4.14
2022-11-23T08:37:05.100Z,4.13
2022-11-23T08:40:02.146Z,4.18
2022-11-23T08:42:59.195Z,4.19
2022-11-23T08:46:04.704Z,4.07
2022-11-23T08:49:04.948Z,3.91
2022-11-23T08:52:01.920Z,4.05
2022-11-23T08:54:58.778Z,4.12
2022-11-23T08:57:57.706Z,4.13
2022-11-23T09:00:54.616Z,4.17
2022-11-23T09:03:51.565Z,4.26
2022-11-23T09:06:48.399Z,4.33
2022-11-23T09:09:45.314Z,4.30
2022-11-23T09:12:42.326Z,4.34
2022-11-23T09:15:39.640Z,4.43
2022-11-23T09:18:36.785Z,4.49
2022-11-23T09:21:35.753Z,4.37
2022-11-23T09:24:32.889Z,4.67
2022-11-23T09:27:30.077Z,4.65
2022-11-23T09:30:28.026Z,4.62
2022-11-23T09:33:25.785Z,4.52
2022-11-23T09:36:26.161Z,4.59
2022-11-23T09:39:23.027Z,4.68
2022-11-23T09:42:40.309Z,4.74
2022-11-23T09:45:55.019Z,4.77
2022-11-23T09:49:11.917Z,4.62
2022-11-23T09:52:19.419Z,4.78
2022-11-23T09:55:22.835Z,4.88
2022-11-23T09:58:22.736Z,4.82
2022-11-23T10:01:20.244Z,4.66
2022-11-23T10:04:20.234Z,4.83
2022-11-23T10:07:28.987Z,4.91
2022-11-23T10:10:53.912Z,4.91
2022-11-23T10:14:13.985Z,4.88
2022-11-23T10:17:35.709Z,4.78
2022-11-23T10:21:02.366Z,5.08
2022-11-23T10:24:08.483Z,5.16
2022-11-23T10:27:16.291Z,5.26
2022-11-23T10:30:15.844Z,5.35
2022-11-23T10:33:45.068Z,5.51
2022-11-23T10:36:42.978Z,5.37
2022-11-23T10:39:40.494Z,5.39
2022-11-23T10:42:47.831Z,5.59
2022-11-23T10:45:44.664Z,5.38
2022-11-23T10:48:44.569Z,5.48
2022-11-23T10:51:53.221Z,5.56
2022-11-23T10:54:55.433Z,5.41
2022-11-23T10:57:52.617Z,5.61
2022-11-23T11:01:00.841Z,5.79
2022-11-23T11:04:04.686Z,5.97
2022-11-23T11:07:23.973Z,6.09
2022-11-23T11:11:02.863Z,5.88
2022-11-23T11:14:19.959Z,6.09
2022-11-23T11:17:28.405Z,5.92
2022-11-23T11:20:34.897Z,6.16
2022-11-23T11:23:33.557Z,6.36
2022-11-23T11:26:33.999Z,6.28
2022-11-23T11:29:39.977Z,6.25
2022-11-23T11:32:56.261Z,6.44
2022-11-23T11:35:55.860Z,6.10
2022-11-23T11:39:17.277Z,6.14
2022-11-23T11:42:27.142Z,6.00
2022-11-23T11:45:36.646Z,6.21
2022-11-23T11:48:45.629Z,6.33
2022-11-23T11:51:48.776Z,6.48
2022-11-23T11:55:19.700Z,6.46
2022-11-23T11:58:17.599Z,6.35
2022-11-23T12:01:35.641Z,6.42
2022-11-23T12:04:56.327Z,6.32
2022-11-23T12:08:06.648Z,6.22
2022-11-23T12:11:05.741Z,6.35
2022-11-23T12:14:05.727Z,6.44
2022-11-23T12:17:32.300Z,6.31
2022-11-23T12:20:33.052Z,6.31
2022-11-23T12:24:28.922Z,6.04
2022-11-23T12:27:39.274Z,6.30
2022-11-23T12:31:08.758Z,6.23
2022-11-23T12:34:11.356Z,6.39
2022-11-23T12:37:44.330Z,6.39
2022-11-23T12:41:07.931Z,6.44
2022-11-23T12:44:44.912Z,6.33
2022-11-23T12:48:09.036Z,6.17
2022-11-23T12:51:35.243Z,6.26
2022-11-23T12:55:19.571Z,6.47
2022-11-23T12:58:32.773Z,6.49
2022-11-23T13:01:39.786Z,6.46
2022-11-23T13:05:03.115Z,6.43
2022-11-23T13:08:32.514Z,6.32
2022-11-23T13:11:58.034Z,6.19
2022-11-23T13:15:47.450Z,6.70
2022-11-23T13:19:22.726Z,6.61
2022-11-23T13:22:22.504Z,6.47
2022-11-23T13:25:29.765Z,6.42
2022-11-23T13:28:31.389Z,6.67
2022-11-23T13:31:32.165Z,6.54
2022-11-23T13:34:46.824Z,6.63
2022-11-23T13:38:23.715Z,6.51
2022-11-23T13:41:35.361Z,6.32
2022-11-23T13:44:33.477Z,6.39
2022-11-23T13:47:30.761Z,5.83
2022-11-23T13:50:27.665Z,6.01
2022-11-23T13:53:33.265Z,5.76
2022-11-23T13:56:41.064Z,5.97
2022-11-23T13:59:37.968Z,5.96
2022-11-23T14:02:34.883Z,5.77
2022-11-23T14:05:59.402Z,5.83
2022-11-23T14:09:33.157Z,4.92
2022-11-23T14:13:15.926Z,5.22
2022-11-23T14:16:18.454Z,4.68
2022-11-23T14:20:02.143Z,4.83
2022-11-23T14:23:56.716Z,5.17
2022-11-23T14:27:54.260Z,5.11
2022-11-23T14:31:17.833Z,5.04
2022-11-23T14:34:29.294Z,4.56
2022-11-23T14:38:12.831Z,4.45
2022-11-23T14:41:31.050Z,4.43
2022-11-23T14:44:34.271Z,4.34
2022-11-23T14:47:34.265Z,4.27
2022-11-23T14:50:31.512Z,3.98
2022-11-23T14:53:54.155Z,4.17
2022-11-23T14:57:05.329Z,4.03
2022-11-23T15:00:07.083Z,3.79
2022-11-23T15:06:46.155Z,3.77
2022-11-23T15:10:05.444Z,3.86
2022-11-23T15:13:02.368Z,3.32
2022-11-23T15:16:03.593Z,3.42
2022-11-23T15:19:00.456Z,3.39
2022-11-23T15:21:58.290Z,3.23
2022-11-23T15:25:06.301Z,2.97
2022-11-23T15:28:03.178Z,3.14
2022-11-23T15:31:00.197Z,2.67
2022-11-23T15:34:03.510Z,2.71
2022-11-23T15:37:02.374Z,2.54
2022-11-23T15:40:00.114Z,2.60
2022-11-23T15:42:57.384Z,2.52
2022-11-23T15:45:54.423Z,2.84
2022-11-23T15:48:56.985Z,2.77
2022-11-23T15:52:00.958Z,2.62
2022-11-23T15:55:10.205Z,2.22
2022-11-23T15:58:09.437Z,2.47
2022-11-23T16:01:13.325Z,2.28
2022-11-23T16:04:40.148Z,2.12
2022-11-23T16:07:57.559Z,1.86
2022-11-23T16:10:55.791Z,1.90
2022-11-23T16:13:52.750Z,1.96
2022-11-23T16:17:14.615Z,2.13
2022-11-23T16:20:16.553Z,1.98
2022-11-23T16:23:21.593Z,2.08
2022-11-23T16:26:18.833Z,3.25
2022-11-23T16:29:26.888Z,2.80
2022-11-23T16:32:31.072Z,2.32
2022-11-23T16:35:27.980Z,2.21
2022-11-23T16:38:25.411Z,2.26
2022-11-23T16:41:22.242Z,2.04
2022-11-23T16:44:19.780Z,2.11
2022-11-23T16:47:19.043Z,2.10
2022-11-23T16:50:16.017Z,2.22
2022-11-23T16:53:17.947Z,2.15
2022-11-23T16:56:26.809Z,2.55
2022-11-23T16:59:23.831Z,2.65
2022-11-23T17:02:20.958Z,2.98
2022-11-23T17:05:20.828Z,2.75
2022-11-23T17:08:23.309Z,2.65
2022-11-23T17:11:24.934Z,2.73
2022-11-23T17:14:28.062Z,2.76
2022-11-23T17:17:26.790Z,2.96
2022-11-23T17:20:24.662Z,2.72
2022-11-23T17:23:22.295Z,3.12
2022-11-23T17:26:37.028Z,3.28
2022-11-23T17:29:37.769Z,3.12
2022-11-23T17:32:37.328Z,2.93
2022-11-23T17:35:38.145Z,3.04
2022-11-23T17:38:36.624Z,3.13
2022-11-23T17:41:33.519Z,3.05
2022-11-23T17:44:30.420Z,2.90
2022-11-23T17:47:29.988Z,2.83
2022-11-23T17:50:28.680Z,2.78
2022-11-23T17:53:25.765Z,2.61
2022-11-23T17:56:25.665Z,2.60
2022-11-23T17:59:22.551Z,3.12
2022-11-23T18:02:20.019Z,3.08
2022-11-23T18:05:21.501Z,2.70
2022-11-23T18:08:18.829Z,2.76
2022-11-23T18:11:15.857Z,2.53
2022-11-23T18:14:12.721Z,2.67
2022-11-23T18:17:09.661Z,2.84
2022-11-23T18:20:08.316Z,3.02
2022-11-23T18:23:05.462Z,3.06
2022-11-23T18:26:21.710Z,2.80
2022-11-23T18:29:18.594Z,2.62
2022-11-23T18:32:15.838Z,2.47
2022-11-23T18:35:12.746Z,2.24
2022-11-23T18:38:09.647Z,2.27
2022-11-23T18:41:07.150Z,2.31
2022-11-23T18:44:04.220Z,2.24
2022-11-23T18:47:01.302Z,2.03
2022-11-23T18:50:02.052Z,2.21
2022-11-23T18:53:03.725Z,2.56
2022-11-23T18:56:05.014Z,2.49
2022-11-23T18:59:02.828Z,2.19
2022-11-23T19:01:59.762Z,2.13
2022-11-23T19:04:56.722Z,1.79
2022-11-23T19:07:54.624Z,1.86
2022-11-23T19:10:51.656Z,1.89
2022-11-23T19:13:52.512Z,1.79
2022-11-23T19:16:49.402Z,1.56
2022-11-23T19:19:46.440Z,1.89
2022-11-23T19:22:43.469Z,1.65
2022-11-23T19:25:41.358Z,1.57
2022-11-23T19:28:38.740Z,1.58
2022-11-23T19:31:35.825Z,1.55
2022-11-23T19:34:32.916Z,1.54
2022-11-23T19:37:29.947Z,1.59
2022-11-23T19:40:26.948Z,1.59
2022-11-23T19:43:23.892Z,1.38
2022-11-23T19:46:21.298Z,1.32
2022-11-23T19:49:18.582Z,1.40
2022-11-23T19:52:15.521Z,1.42
2022-11-23T19:55:12.392Z,1.48
2022-11-23T19:58:09.271Z,1.54
2022-11-23T20:01:10.775Z,1.71
2022-11-23T20:04:10.257Z,1.63
2022-11-23T20:07:07.455Z,1.69
2022-11-23T20:10:04.928Z,1.81
2022-11-23T20:13:01.856Z,2.10
2022-11-23T20:16:04.063Z,1.85
2022-11-23T20:19:07.285Z,2.41
2022-11-23T20:22:04.234Z,2.19
2022-11-23T20:25:01.114Z,2.07
2022-11-23T20:27:58.053Z,1.98
2022-11-23T20:30:54.981Z,2.07
2022-11-23T20:33:54.004Z,2.08
2022-11-23T20:36:50.956Z,1.99
2022-11-23T20:39:47.797Z,2.09
2022-11-23T20:42:44.659Z,2.00
2022-11-23T20:45:41.539Z,2.03
2022-11-23T20:48:40.484Z,2.05
2022-11-23T20:51:37.345Z,2.08
2022-11-23T20:54:34.449Z,2.05
2022-11-23T20:57:31.452Z,2.31
2022-11-23T21:00:28.278Z,2.38
2022-11-23T21:03:25.260Z,2.44
2022-11-23T21:06:23.223Z,2.53
2022-11-23T21:09:20.159Z,2.66
2022-11-23T21:12:47.599Z,2.73
2022-11-23T21:15:47.295Z,2.81
2022-11-23T21:18:44.214Z,2.90
2022-11-23T21:21:41.298Z,2.92
2022-11-23T21:24:38.734Z,3.00
2022-11-23T21:27:35.594Z,2.92
2022-11-23T21:30:32.531Z,2.93
2022-11-23T21:33:29.983Z,2.92
2022-11-23T21:36:26.819Z,2.87
2022-11-23T21:39:24.209Z,2.80
2022-11-23T21:42:21.220Z,2.89
2022-11-23T21:45:18.196Z,2.87
2022-11-23T21:48:15.041Z,2.83
2022-11-23T21:51:14.994Z,2.89
2022-11-23T21:54:15.478Z,2.87
2022-11-23T21:57:12.414Z,2.90
2022-11-23T22:00:10.080Z,2.90
2022-11-23T22:03:06.911Z,2.84
2022-11-23T22:06:04.777Z,2.87
2022-11-23T22:09:01.810Z,2.89
2022-11-23T22:11:59.015Z,2.91
2022-11-23T22:14:55.865Z,2.88
2022-11-23T22:17:52.730Z,2.84
2022-11-23T22:20:49.553Z,2.76
2022-11-23T22:23:46.740Z,2.80
2022-11-23T22:26:44.989Z,2.76
2022-11-23T22:29:41.835Z,2.79
2022-11-23T22:32:38.699Z,2.75
2022-11-23T22:35:35.516Z,2.74
2022-11-23T22:38:33.391Z,2.81
2022-11-23T22:41:36.226Z,2.77
2022-11-23T22:44:33.333Z,2.74
2022-11-23T22:47:30.366Z,2.74
2022-11-23T22:50:27.198Z,2.77
2022-11-23T22:53:24.964Z,2.78
2022-11-23T22:56:21.960Z,2.78
2022-11-23T22:59:19.092Z,2.82
2022-11-23T23:02:15.943Z,2.79
2022-11-23T23:05:12.869Z,2.73
2022-11-23T23:08:10.400Z,2.74
2022-11-23T23:11:07.718Z,2.84
2022-11-23T23:14:05.626Z,2.78
2022-11-23T23:17:02.477Z,2.75
2022-11-23T23:19:59.298Z,2.78
2022-11-23T23:22:56.216Z,2.76
2022-11-23T23:25:56.530Z,2.77
2022-11-23T23:28:58.951Z,2.67
2022-11-23T23:31:55.892Z,2.77
2022-11-23T23:34:52.844Z,2.76
2022-11-23T23:37:51.770Z,2.79
2022-11-23T23:40:48.605Z,2.73
2022-11-23T23:43:47.943Z,2.82
2022-11-23T23:46:44.904Z,2.71
2022-11-23T23:49:41.775Z,2.70
2022-11-23T23:52:38.703Z,2.75
2022-11-23T23:55:35.566Z,2.79
2022-11-23T23:58:32.616Z,2.80
